Forrest Airport

YFRT · 澳大利亚

METAR的历史 YFRT · Forrest Airport

下面你可以看到过去几天的METARs。 选择年份以浏览从2007年开始的旧METAR。

2024年7月17日

时间 代码 天气 温度 能见度 天花板 METAR/SPECI
00:00
V
8 °C 10 km+ 5.200 ft 360° 360° 0 kt METAR YFRT 161600Z AUTO 00000KT 9999 // OVC052 08/06 Q1027 RF00.0/000.2

2024年7月16日

时间 代码 天气 温度 能见度 天花板 METAR/SPECI
23:30
V
9 °C 10 km+ 5.400 ft 360° 360° 0 kt METAR YFRT 161530Z AUTO 00000KT 9999 // BKN054 09/06 Q1028 RF00.0/000.2
23:00
V
9 °C 10 km+ 5.600 ft 360° 360° 0 kt METAR YFRT 161500Z AUTO 00000KT 9999 // FEW043 OVC056 09/06 Q1028
22:30
V
9 °C 10 km+ 5.600 ft 360° 360° 0 kt METAR YFRT 161430Z AUTO 00000KT 9999 // BKN056 09/07 Q1028 RF00.0/000.2
22:00
V
9 °C 10 km+ 5.600 ft 360° 360° 0 kt METAR YFRT 161400Z AUTO 00000KT 9999 // OVC056 09/07 Q1028 RF00.0/000.2
21:30
V
9 °C 10 km+ 5.400 ft 150° 150° 6 kt METAR YFRT 161330Z AUTO 15006KT 9999 // BKN054 09/07 Q1028 RF00.0/000.2
21:00
V
9 °C 10 km+ - 150° 150° 5 kt METAR YFRT 161300Z AUTO 15005KT 9999 // NCD 09/06 Q1028 RF00.0/000.2
20:30
V
9 °C 10 km+ - 150° 150° 3 kt METAR YFRT 161230Z AUTO 15003KT 9999 // FEW046 09/07 Q1028 RF00.0/000.2
20:00
V
9 °C 10 km+ 4.800 ft 150° 150° 4 kt METAR YFRT 161200Z AUTO 15004KT 9999 // BKN048 09/07 Q1028 RF00.0/000.2
19:30
V
10 °C 10 km+ 4.100 ft 150° 150° 5 kt METAR YFRT 161130Z AUTO 15005KT 9999 // BKN041 10/07 Q1028 RF00.0/000.2
19:00
V
10 °C 10 km+ - 150° 150° 5 kt METAR YFRT 161100Z AUTO 15005KT 9999 // SCT054 10/07 Q1027 RF00.0/000.2
18:30
V
11 °C 10 km+ - 150° 150° 6 kt METAR YFRT 161030Z AUTO 15006KT 9999 // NCD 11/07 Q1027 RF00.0/000.2
18:00
V
11 °C 10 km+ - 160° 160° 7 kt METAR YFRT 161000Z AUTO 16007KT 9999 // FEW040 11/07 Q1026 RF00.0/000.2
17:30
V
13 °C 10 km+ - 160° 160° 6 kt METAR YFRT 160930Z AUTO 16006KT 9999 // FEW060 13/08 Q1026 RF00.0/000.2
17:00
V
14 °C 10 km+ 6.000 ft 140° 140° 6 kt METAR YFRT 160900Z AUTO 14006KT 9999 // BKN060 14/08 Q1026 RF00.0/000.2
16:30
V
15 °C 10 km+ 5.600 ft 150° 150° 9 kt METAR YFRT 160830Z AUTO 15009KT 9999 // FEW036 OVC056 15/08 Q1026
16:00
V
15 °C 10 km+ 4.700 ft 150° 150° 11 kt METAR YFRT 160800Z AUTO 15011KT 9999 // SCT039 BKN047 BKN060 15/08 Q1026
15:30
V
16 °C 10 km+ 5.600 ft 200° 200° 8 kt METAR YFRT 160730Z AUTO 20008KT 9999 // SCT047 OVC056 16/06 Q1026
15:00
V
16 °C 10 km+ 5.800 ft 230° 230° 7 kt METAR YFRT 160700Z AUTO 23007KT 9999 // FEW038 SCT045 BKN058 16/08 Q1026
14:30
V
16 °C 10 km+ - 190° 190° 7 kt METAR YFRT 160630Z AUTO 19007KT 9999 // FEW039 16/07 Q1026 RF00.0/000.2
14:00
V
15 °C 10 km+ 5.400 ft 210° 210° 6 kt METAR YFRT 160600Z AUTO 21006KT 9999 // BKN054 15/08 Q1026 RF00.0/000.2
13:30
V
15 °C 10 km+ 5.600 ft 230° 230° 8 kt METAR YFRT 160530Z AUTO 23008KT 9999 // OVC056 15/09 Q1026 RF00.0/000.2
13:00
V
15 °C 10 km+ 5.600 ft 230° 230° 8 kt METAR YFRT 160500Z AUTO 23008KT 9999 // OVC056 15/09 Q1026 RF00.0/000.2
12:30
M
15 °C 10 km+ 2.800 ft 220° 220° 11 kt METAR YFRT 160430Z AUTO 22011KT 9999 // SCT022 BKN028 BKN047 15/10 Q1027
12:00
V
15 °C 10 km+ 3.700 ft 170° 170° 7 kt METAR YFRT 160400Z AUTO 17007KT 110V200 9999 // SCT028 BKN037 OVC053 15/09 Q1027
11:30
V
15 °C 10 km+ - 200° 200° 5 kt METAR YFRT 160330Z AUTO 20005KT 9999 // FEW021 SCT044 15/09 Q1027
11:00
V
15 °C 10 km+ 3.300 ft 190° 190° 6 kt METAR YFRT 160300Z AUTO 19006KT 9999 // FEW021 SCT025 BKN033 15/09 Q1028
10:30
V
14 °C 10 km+ - 180° 180° 6 kt METAR YFRT 160230Z AUTO 18006KT 160V220 9999 // SCT019 14/09 Q1028
10:00
V
13 °C 10 km+ - 200° 200° 7 kt METAR YFRT 160200Z AUTO 20007KT 9999 // NCD 13/10 Q1028 RF00.0/000.0
09:30
V
13 °C 10 km+ - 200° 200° 7 kt METAR YFRT 160130Z AUTO 20007KT 9999 // NCD 13/10 Q1029 RF00.0/000.0
09:00
V
12 °C 10 km+ 4.600 ft 230° 230° 7 kt METAR YFRT 160100Z AUTO 23007KT 9999 // BKN046 12/11 Q1029 RF00.0/000.2
08:30
V
10 °C 10 km+ - 230° 230° 7 kt METAR YFRT 160030Z AUTO 23007KT 9999 // NCD 10/10 Q1028 RF00.0/000.2
08:00
V
7 °C 10 km+ 4.300 ft 230° 230° 7 kt METAR YFRT 160000Z AUTO 23007KT 9999 // BKN043 07/07 Q1028 RF00.0/000.2
07:30
V
7 °C 10 km+ 3.200 ft 210° 210° 6 kt METAR YFRT 152330Z AUTO 21006KT 9999 // SCT027 BKN032 BKN038 07/07 Q1028
07:25
M
7 °C 10 km+ 2.700 ft 200° 200° 5 kt METAR YFRT 152325Z AUTO 20005KT 9999 // FEW001 BKN027 BKN032 07/06 Q1028
07:00
L
5 °C 500 m 1.900 ft 190° 190° 5 kt METAR YFRT 152300Z AUTO 19005KT 0500 FG SCT001 BKN019 BKN038 05/05 Q1028
06:54
L
5 °C 800 m 1.900 ft 190° 190° 5 kt METAR YFRT 152254Z AUTO 19005KT 0800 FG SCT001 BKN019 OVC038 05/05 Q1027
06:30
L
5 °C 1,8 km 100 ft 170° 170° 5 kt METAR YFRT 152230Z AUTO 17005KT 1800 BR BKN001 OVC036 05/05 Q1027
06:22
L
5 °C 2,9 km 100 ft 160° 160° 5 kt METAR YFRT 152222Z AUTO 16005KT 130V210 2900 BR BKN001 BKN036 05/05 Q1027
06:00
L
5 °C 900 m 4.900 ft 230° 230° 7 kt METAR YFRT 152200Z AUTO 23007KT 0900 FG SCT001 SCT036 OVC049 05/05 Q1027
05:59
L
5 °C 800 m 4.900 ft 230° 230° 6 kt METAR YFRT 152159Z AUTO 23006KT 0800 FG SCT001 SCT036 OVC049 05/05 Q1027
05:30
L
5 °C 250 m 100 ft 220° 220° 5 kt METAR YFRT 152130Z AUTO 22005KT 0250 FG OVC001 05/04 Q1027 RF00.0/000.2
05:00
L
5 °C 1,1 km 100 ft 240° 240° 6 kt METAR YFRT 152100Z AUTO 24006KT 1100 BR BKN001 OVC045 05/05 Q1026
04:30
L
5 °C 500 m 100 ft 240° 240° 8 kt METAR YFRT 152030Z AUTO 24008KT 0500 FG OVC001 05/05 Q1026 RF00.0/000.2
04:00
L
5 °C 1,4 km - 230° 230° 7 kt METAR YFRT 152000Z AUTO 23007KT 1400 BR SCT001 05/05 Q1026 RF00.0/000.2
03:40
M
6 °C 6 km - 230° 230° 6 kt METAR YFRT 151940Z AUTO 23006KT 6000 // FEW001 06/05 Q1025 RF00.0/000.2
03:30
V
5 °C 10 km+ - 230° 230° 6 kt METAR YFRT 151930Z AUTO 23006KT 9999 // NCD 05/05 Q1026 RF00.0/000.2
03:00
V
6 °C 10 km+ - 230° 230° 7 kt METAR YFRT 151900Z AUTO 23007KT 9999 // NCD 06/05 Q1026 RF00.0/000.2
02:30
V
6 °C 10 km+ - 240° 240° 6 kt METAR YFRT 151830Z AUTO 24006KT 9999 // NCD 06/05 Q1026 RF00.0/000.2
02:00
V
5 °C 10 km+ - 250° 250° 6 kt METAR YFRT 151800Z AUTO 25006KT 9999 // NCD 05/05 Q1026 RF00.0/000.2
01:30
V
5 °C 10 km+ - 240° 240° 6 kt METAR YFRT 151730Z AUTO 24006KT 9999 // NCD 05/05 Q1025 RF00.0/000.2
01:00
V
6 °C 10 km+ - 230° 230° 6 kt METAR YFRT 151700Z AUTO 23006KT 9999 // NCD 06/06 Q1025 RF00.0/000.2
00:30
V
7 °C 10 km+ - 230° 230° 6 kt METAR YFRT 151630Z AUTO 23006KT 9999 // NCD 07/06 Q1025 RF00.0/000.2
00:00
V
7 °C 10 km+ - 220° 220° 7 kt METAR YFRT 151600Z AUTO 22007KT 9999 // NCD 07/06 Q1025 RF00.0/000.2

2024年7月15日

时间 代码 天气 温度 能见度 天花板 METAR/SPECI
23:30
V
7 °C 10 km+ - 210° 210° 6 kt METAR YFRT 151530Z AUTO 21006KT 9999 // NCD 07/07 Q1025 RF00.0/000.2
23:00
V
7 °C 10 km+ - 210° 210° 6 kt METAR YFRT 151500Z AUTO 21006KT 9999 // NCD 07/06 Q1025 RF00.0/000.2
22:30
V
7 °C 10 km+ - 190° 190° 5 kt METAR YFRT 151430Z AUTO 19005KT 9999 // NCD 07/06 Q1026 RF00.0/000.2
22:00
V
8 °C 10 km+ - 210° 210° 6 kt METAR YFRT 151400Z AUTO 21006KT 9999 // NCD 08/07 Q1026 RF00.0/000.2
21:30
V
8 °C 10 km+ - 230° 230° 6 kt METAR YFRT 151330Z AUTO 23006KT 9999 // NCD 08/08 Q1026 RF00.0/000.2
21:02
V
9 °C 10 km+ - 130° 130° 6 kt METAR YFRT 151302Z AUTO 13006KT 9999 // FEW001 09/08 Q1026 RF00.0/000.2
20:37
M
9 °C 5 km - 130° 130° 6 kt METAR YFRT 151237Z AUTO 13006KT 5000 BR FEW001 09/09 Q1025 RF00.0/000.2
20:00
V
9 °C 10 km+ - 130° 130° 5 kt METAR YFRT 151200Z AUTO 13005KT 9999 // NCD 09/09 Q1025 RF00.0/000.2
19:30
V
10 °C 10 km+ - 130° 130° 4 kt METAR YFRT 151130Z AUTO 13004KT 9999 // NCD 10/09 Q1025 RF00.0/000.2
19:00
V
11 °C 10 km+ - 130° 130° 4 kt METAR YFRT 151100Z AUTO 13004KT 9999 // NCD 11/10 Q1025 RF00.0/000.2
18:30
V
11 °C 10 km+ 3.900 ft 130° 130° 3 kt METAR YFRT 151030Z AUTO 13003KT 9999 // BKN039 11/10 Q1025 RF00.0/000.2
18:00
V
11 °C 10 km+ 4.600 ft 130° 130° 5 kt METAR YFRT 151000Z AUTO 13005KT 9999 // SCT040 BKN046 11/10 Q1024
17:30
V
12 °C 10 km+ 3.500 ft 140° 140° 8 kt METAR YFRT 150930Z AUTO 14008KT 9999 // BKN035 OVC040 12/10 Q1024
17:00
V
13 °C 10 km+ 4.400 ft 190° 190° 9 kt METAR YFRT 150900Z AUTO 19009KT 9999 // SCT030 SCT038 BKN044 13/10 Q1024
16:30
V
13 °C 10 km+ 4.300 ft 200° 200° 12 kt METAR YFRT 150830Z AUTO 20012KT 9999 // SCT026 BKN043 OVC072 13/10 Q1023
16:00
V
13 °C 10 km+ 4.500 ft 160° 160° 11 kt METAR YFRT 150800Z AUTO 16011KT 9999 // FEW015 SCT031 BKN045 13/10 Q1023
15:30
V
14 °C 10 km+ 5.200 ft 160° 160° 11 kt METAR YFRT 150730Z AUTO 16011KT 140V220 9999 // FEW015 SCT027 BKN052 14/10 Q1023
15:00
V
14 °C 10 km+ 5.800 ft 250° 250° 8 kt METAR YFRT 150700Z AUTO 25008KT 9999 // OVC058 14/10 Q1023 RF00.0/000.2
14:30
V
14 °C 10 km+ 6.200 ft 230° 230° 8 kt METAR YFRT 150630Z AUTO 23008KT 9999 // FEW033 OVC062 14/10 Q1022
14:00
M
14 °C 10 km+ 2.900 ft 210° 210° 11 kt METAR YFRT 150600Z AUTO 21011KT 9999 // SCT023 BKN029 BKN035 14/10 Q1022
13:30
V
15 °C 10 km+ 4.000 ft 220° 220° 5 kt METAR YFRT 150530Z AUTO 22005KT 9999 // FEW023 SCT029 BKN040 15/09 Q1022
13:00
V
15 °C 10 km+ 4.400 ft 200° 200° 7 kt METAR YFRT 150500Z AUTO 20007KT 9999 // BKN044 15/11 Q1022 RF00.0/000.0
12:30
V
15 °C 10 km+ 4.100 ft 220° 220° 6 kt METAR YFRT 150430Z AUTO 22006KT 9999 // SCT028 BKN041 15/10 Q1022
12:00
M
14 °C 10 km+ 2.700 ft 240° 240° 5 kt METAR YFRT 150400Z AUTO 24005KT 9999 // SCT019 BKN027 BKN032 14/10 Q1022
11:30
M
14 °C 10 km+ 1.500 ft 270° 270° 5 kt METAR YFRT 150330Z AUTO 27005KT 250V330 9999 // BKN015 BKN022 OVC037 14/10 Q1023
11:00
V
14 °C 10 km+ 3.700 ft 270° 270° 3 kt METAR YFRT 150300Z AUTO 27003KT 9999 // FEW011 OVC037 OVC044 14/10 Q1023
10:30
V
13 °C 10 km+ 3.700 ft 340° 340° 3 kt METAR YFRT 150230Z AUTO 34003KT 9999 // OVC037 13/10 Q1024 RF00.0/000.0
10:00
V
12 °C 10 km+ 3.700 ft 340° 340° 3 kt METAR YFRT 150200Z AUTO 34003KT 9999 // OVC037 12/10 Q1024 RF00.0/000.0
09:30
V
11 °C 10 km+ 3.700 ft 340° 340° 3 kt METAR YFRT 150130Z AUTO 34003KT 9999 // OVC037 11/10 Q1024 RF00.0/000.0
09:00
V
10 °C 10 km+ 3.700 ft 110° 110° 4 kt METAR YFRT 150100Z AUTO 11004KT 9999 // OVC037 10/10 Q1024 RF00.0/000.2
08:30
V
9 °C 10 km+ 3.500 ft 360° 360° 0 kt METAR YFRT 150030Z AUTO 00000KT 9999 // FEW002 OVC035 09/09 Q1024
08:00
V
8 °C 10 km+ 3.300 ft 360° 360° 0 kt METAR YFRT 150000Z AUTO 00000KT 9999 // OVC033 08/08 Q1023 RF00.0/000.2
07:59
V
8 °C 10 km+ 3.300 ft 360° 360° 0 kt METAR YFRT 142359Z AUTO 00000KT 9999 // OVC033 08/08 Q1023 RF00.0/000.2
07:30
L
7 °C 900 m 200 ft 110° 110° 4 kt METAR YFRT 142330Z AUTO 11004KT 0900 FG BKN002 OVC033 07/06 Q1023
07:00
L
5 °C 1,3 km 200 ft 110° 110° 5 kt METAR YFRT 142300Z AUTO 11005KT 1300 BR BKN002 BKN067 05/05 Q1023
06:57
L
5 °C 1,9 km 200 ft 110° 110° 5 kt METAR YFRT 142257Z AUTO 11005KT 1900 BR BKN002 BKN067 05/05 Q1023
06:30
L
5 °C 1,3 km 100 ft 360° 360° 0 kt METAR YFRT 142230Z AUTO 00000KT 1300 BR BKN001 OVC067 05/05 Q1022
06:00
L
5 °C 700 m 200 ft 360° 360° 0 kt METAR YFRT 142200Z AUTO 00000KT 0700 FG OVC002 05/05 Q1022 RF00.0/000.2
05:30
L
5 °C 300 m 200 ft 360° 360° 0 kt METAR YFRT 142130Z AUTO 00000KT 0300 FG OVC002 05/05 Q1021 RF00.0/000.2
05:00
L
5 °C 1,1 km 100 ft 360° 360° 0 kt METAR YFRT 142100Z AUTO 00000KT 1100 BR OVC001 05/05 Q1021 RF00.0/000.2
04:30
L
5 °C 1,8 km 100 ft 360° 360° 0 kt METAR YFRT 142030Z AUTO 00000KT 1800 BR BKN001 05/05 Q1021 RF00.0/000.2
04:23
I
5 °C 3,4 km - 360° 360° 0 kt METAR YFRT 142023Z AUTO 00000KT 3400 BR SCT001 05/05 Q1021 RF00.0/000.2
04:00
L
6 °C 2,5 km 100 ft 110° 110° 3 kt METAR YFRT 142000Z AUTO 11003KT 2500 BR BKN001 06/05 Q1021 RF00.0/000.2
03:30
L
6 °C 1,2 km 100 ft 110° 110° 2 kt METAR YFRT 141930Z AUTO 11002KT 1200 BR BKN001 06/05 Q1021 RF00.0/000.2
03:00
L
6 °C 1,7 km 100 ft 360° 360° 0 kt METAR YFRT 141900Z AUTO 00000KT 1700 BR BKN001 06/06 Q1021 RF00.0/000.2
02:30
L
7 °C 2 km 100 ft 110° 110° 3 kt METAR YFRT 141830Z AUTO 11003KT 2000 BR OVC001 07/06 Q1021 RF00.0/000.2
02:00
L
7 °C 1,1 km 100 ft 110° 110° 3 kt METAR YFRT 141800Z AUTO 11003KT 1100 BR OVC001 07/07 Q1021 RF00.0/000.2
01:30
L
7 °C 1 km 100 ft 110° 110° 4 kt METAR YFRT 141730Z AUTO 11004KT 1000 BR OVC001 07/07 Q1021 RF00.0/000.2
01:00
L
7 °C 250 m 100 ft 110° 110° 4 kt METAR YFRT 141700Z AUTO 11004KT 0250 FG OVC001 07/07 Q1021 RF00.0/000.2
00:30
L
8 °C 450 m 100 ft 110° 110° 4 kt SPECI YFRT 141630Z AUTO 11004KT 0450 FG BKN001 08/07 Q1021 RF00.0/000.2
00:09
M
8 °C 6 km - 110° 110° 4 kt SPECI YFRT 141609Z AUTO 11004KT 6000 // NCD 08/07 Q1021 RF00.0/000.2

2024年7月14日

时间 代码 天气 温度 能见度 天花板 METAR/SPECI
23:30
V
8 °C 10 km+ - 110° 110° 6 kt METAR YFRT 141530Z AUTO 11006KT 9999 // NCD 08/08 Q1021 RF00.0/000.2
23:00
V
8 °C 10 km+ - 120° 120° 7 kt METAR YFRT 141500Z AUTO 12007KT 9999 // NCD 08/08 Q1021 RF00.0/000.2
22:30
V
9 °C 10 km+ - 130° 130° 6 kt METAR YFRT 141430Z AUTO 13006KT 9999 // NCD 09/08 Q1021 RF00.0/000.2
22:00
V
9 °C 10 km+ - 130° 130° 6 kt METAR YFRT 141400Z AUTO 13006KT 9999 // NCD 09/08 Q1021 RF00.0/000.2
21:30
V
9 °C 10 km+ - 140° 140° 6 kt METAR YFRT 141330Z AUTO 14006KT 9999 // NCD 09/08 Q1022 RF00.0/000.2
21:00
V
9 °C 10 km+ - 130° 130° 6 kt METAR YFRT 141300Z AUTO 13006KT 9999 // NCD 09/09 Q1022 RF00.0/000.2
20:30
V
10 °C 10 km+ - 150° 150° 6 kt METAR YFRT 141230Z AUTO 15006KT 9999 // NCD 10/09 Q1022 RF00.0/000.2
20:00
V
11 °C 10 km+ - 130° 130° 7 kt METAR YFRT 141200Z AUTO 13007KT 9999 // NCD 11/09 Q1022 RF00.0/000.2
19:30
V
11 °C 10 km+ - 140° 140° 8 kt METAR YFRT 141130Z AUTO 14008KT 9999 // NCD 11/09 Q1021 RF00.0/000.2
19:00
V
12 °C 10 km+ - 140° 140° 9 kt METAR YFRT 141100Z AUTO 14009KT 9999 // NCD 12/09 Q1021 RF00.0/000.2
18:30
V
13 °C 10 km+ - 170° 170° 9 kt METAR YFRT 141030Z AUTO 17009KT 9999 // NCD 13/09 Q1021 RF00.0/000.2
18:00
V
14 °C 10 km+ - 160° 160° 7 kt METAR YFRT 141000Z AUTO 16007KT 9999 // NCD 14/08 Q1021 RF00.0/000.2
17:30
V
14 °C 10 km+ - 150° 150° 7 kt METAR YFRT 140930Z AUTO 15007KT 9999 // NCD 14/08 Q1021 RF00.0/000.2
17:00
V
15 °C 10 km+ - 150° 150° 6 kt METAR YFRT 140900Z AUTO 15006KT 9999 // NCD 15/08 Q1020 RF00.0/000.2
16:30
V
17 °C 10 km+ - 220° 220° 3 kt METAR YFRT 140830Z AUTO 22003KT 9999 // NCD 17/07 Q1020 RF00.0/000.2
16:00
V
17 °C 10 km+ - 220° 220° 2 kt METAR YFRT 140800Z AUTO 22002KT 9999 // NCD 17/07 Q1020 RF00.0/000.2
15:30
V
18 °C 10 km+ - 220° 220° 6 kt METAR YFRT 140730Z AUTO 22006KT 9999 // NCD 18/06 Q1020 RF00.0/000.2
15:00
V
18 °C 10 km+ - 300° 300° 3 kt METAR YFRT 140700Z AUTO 30003KT 9999 // NCD 18/08 Q1020 RF00.0/000.2
14:30
V
18 °C 10 km+ - 270° 270° 3 kt METAR YFRT 140630Z AUTO 27003KT 9999 // NCD 18/07 Q1020 RF00.0/000.2
14:00
V
18 °C 10 km+ - 080° 080° 1 kt METAR YFRT 140600Z AUTO 08001KT 9999 // NCD 18/09 Q1020 RF00.0/000.2
报告变更